createdAt,value
2019-01-26T00:00:23.743Z,23.73
2019-01-26T00:03:27.504Z,25.20
2019-01-26T00:06:31.234Z,24.33
2019-01-26T00:09:34.920Z,28.10
2019-01-26T00:12:38.564Z,25.97
2019-01-26T00:15:42.311Z,24.07
2019-01-26T00:18:45.985Z,32.43
2019-01-26T00:21:49.664Z,27.13
2019-01-26T00:24:53.446Z,24.97
2019-01-26T00:27:57.066Z,27.60
2019-01-26T00:31:00.715Z,27.13
2019-01-26T00:34:04.493Z,23.63
2019-01-26T00:37:08.234Z,21.67
2019-01-26T00:40:12.000Z,24.00
2019-01-26T00:43:15.572Z,25.83
2019-01-26T00:46:19.183Z,26.07
2019-01-26T00:49:22.877Z,28.03
2019-01-26T00:52:26.540Z,23.83
2019-01-26T00:55:30.132Z,25.77
2019-01-26T00:58:33.773Z,24.23
2019-01-26T01:01:37.412Z,23.87
2019-01-26T01:04:41.149Z,23.83
2019-01-26T01:07:44.871Z,22.27
2019-01-26T01:10:48.459Z,24.73
2019-01-26T01:13:52.004Z,24.23
2019-01-26T01:16:55.707Z,27.07
2019-01-26T01:19:59.349Z,23.70
2019-01-26T01:23:03.061Z,22.07
2019-01-26T01:26:06.724Z,23.80
2019-01-26T01:29:10.498Z,21.53
2019-01-26T01:32:14.055Z,25.23
2019-01-26T01:35:17.667Z,26.20
2019-01-26T01:38:21.301Z,26.10
2019-01-26T01:41:24.933Z,27.63
2019-01-26T01:44:28.570Z,27.63
2019-01-26T01:47:32.169Z,21.37
2019-01-26T01:50:35.776Z,21.80
2019-01-26T01:53:39.497Z,21.57
2019-01-26T01:56:43.149Z,20.70
2019-01-26T01:59:46.870Z,24.37
2019-01-26T02:02:51.467Z,25.30
2019-01-26T02:05:56.157Z,20.47
2019-01-26T02:08:59.749Z,26.40
2019-01-26T02:12:03.303Z,23.70
2019-01-26T02:15:07.530Z,23.97
2019-01-26T02:18:11.189Z,22.50
2019-01-26T02:21:14.856Z,18.83
2019-01-26T02:24:18.496Z,22.10
2019-01-26T02:27:22.290Z,19.83
2019-01-26T02:30:25.877Z,19.77
2019-01-26T02:33:29.406Z,18.63
2019-01-26T02:36:33.108Z,19.63
2019-01-26T02:39:36.713Z,17.53
2019-01-26T02:42:40.439Z,19.20
2019-01-26T02:45:44.102Z,20.20
2019-01-26T02:48:47.692Z,23.42
2019-01-26T02:51:51.186Z,20.70
2019-01-26T02:54:54.856Z,23.12
2019-01-26T02:57:58.542Z,19.20
2019-01-26T03:01:02.142Z,21.10
2019-01-26T03:04:05.718Z,20.40
2019-01-26T03:07:09.373Z,17.33
2019-01-26T03:10:14.767Z,22.37
2019-01-26T03:13:18.408Z,20.05
2019-01-26T03:16:21.995Z,20.72
2019-01-26T03:19:25.614Z,19.57
2019-01-26T03:22:29.185Z,18.55
2019-01-26T03:25:32.804Z,19.73
2019-01-26T03:28:36.396Z,19.02
2019-01-26T03:31:39.982Z,20.32
2019-01-26T03:34:43.541Z,17.42
2019-01-26T03:37:47.268Z,19.00
2019-01-26T03:40:50.770Z,22.30
2019-01-26T03:43:54.297Z,19.07
2019-01-26T03:46:57.905Z,23.22
2019-01-26T03:50:01.551Z,21.77
2019-01-26T03:53:05.172Z,21.85
2019-01-26T03:56:08.722Z,22.70
2019-01-26T03:59:12.431Z,23.92
2019-01-26T04:02:16.114Z,22.13
2019-01-26T04:05:19.748Z,22.15
2019-01-26T04:08:23.407Z,19.52
2019-01-26T04:11:27.006Z,22.42
2019-01-26T04:14:30.628Z,19.42
2019-01-26T04:17:34.279Z,20.95
2019-01-26T04:20:37.982Z,22.42
2019-01-26T04:23:41.620Z,19.20
2019-01-26T04:26:45.280Z,17.75
2019-01-26T04:29:48.958Z,21.12
2019-01-26T04:32:52.527Z,18.05
2019-01-26T04:35:56.144Z,20.70
2019-01-26T04:38:59.742Z,19.73
2019-01-26T04:42:03.379Z,18.67
2019-01-26T04:45:08.797Z,18.87
2019-01-26T04:48:12.425Z,19.02
2019-01-26T04:51:16.045Z,17.23
2019-01-26T04:54:19.617Z,22.30
2019-01-26T04:57:23.230Z,16.67
2019-01-26T05:00:28.036Z,19.35
2019-01-26T05:03:31.667Z,17.45
2019-01-26T05:06:35.235Z,19.73
2019-01-26T05:09:38.988Z,18.17
2019-01-26T05:12:42.582Z,17.30
2019-01-26T05:15:46.182Z,19.15
2019-01-26T05:18:49.731Z,19.17
2019-01-26T05:21:53.410Z,19.25
2019-01-26T05:24:57.098Z,18.30
2019-01-26T05:28:00.804Z,18.23
2019-01-26T05:31:04.512Z,21.77
2019-01-26T05:34:08.203Z,19.70
2019-01-26T05:37:11.931Z,17.67
2019-01-26T05:40:16.230Z,18.92
2019-01-26T05:43:19.920Z,18.67
2019-01-26T05:46:23.610Z,16.73
2019-01-26T05:49:27.267Z,15.90
2019-01-26T05:52:30.967Z,21.42
2019-01-26T05:55:34.687Z,19.80
2019-01-26T05:58:38.286Z,19.07
2019-01-26T06:01:42.046Z,16.07
2019-01-26T06:04:45.652Z,15.58
2019-01-26T06:07:50.133Z,18.15
2019-01-26T06:10:52.969Z,18.67
2019-01-26T06:13:56.678Z,15.38
2019-01-26T06:17:00.207Z,19.50
2019-01-26T06:20:03.985Z,18.25
2019-01-26T06:23:07.610Z,18.48
2019-01-26T06:26:11.200Z,16.65
2019-01-26T06:29:14.819Z,17.70
2019-01-26T06:32:18.568Z,19.48
2019-01-26T06:35:22.263Z,16.75
2019-01-26T06:38:25.945Z,17.27
2019-01-26T06:41:29.564Z,16.90
2019-01-26T06:44:33.184Z,18.20
2019-01-26T06:47:37.002Z,17.80
2019-01-26T06:50:40.706Z,16.40
2019-01-26T06:53:44.403Z,19.07
2019-01-26T06:56:49.171Z,23.30
2019-01-26T06:59:52.841Z,19.27
2019-01-26T07:02:56.652Z,20.97
2019-01-26T07:06:11.422Z,20.00
2019-01-26T07:09:15.178Z,18.80
2019-01-26T07:12:18.963Z,20.62
2019-01-26T07:15:22.730Z,18.60
2019-01-26T07:18:26.246Z,20.00
2019-01-26T07:21:29.929Z,13.83
2019-01-26T07:24:33.622Z,19.77
2019-01-26T07:27:37.391Z,20.00
2019-01-26T07:30:41.080Z,16.87
2019-01-26T07:33:44.962Z,22.33
2019-01-26T07:36:48.595Z,17.30
2019-01-26T07:39:53.143Z,17.73
2019-01-26T07:42:56.882Z,18.43
2019-01-26T07:46:00.587Z,16.03
2019-01-26T07:49:04.294Z,17.67
2019-01-26T07:52:07.873Z,17.23
2019-01-26T07:55:11.621Z,17.57
2019-01-26T07:58:15.211Z,16.50
2019-01-26T08:01:18.858Z,18.20
2019-01-26T08:04:22.469Z,16.43
2019-01-26T08:07:26.352Z,18.03
2019-01-26T08:10:32.814Z,18.43
2019-01-26T08:13:36.495Z,17.33
2019-01-26T08:16:40.245Z,15.83
2019-01-26T08:19:43.947Z,19.10
2019-01-26T08:22:48.711Z,17.50
2019-01-26T08:25:52.475Z,17.67
2019-01-26T08:28:56.192Z,15.17
2019-01-26T08:32:00.116Z,15.90
2019-01-26T08:35:05.237Z,13.40
2019-01-26T08:38:08.990Z,13.95
2019-01-26T08:41:12.757Z,15.97
2019-01-26T08:44:16.451Z,18.57
2019-01-26T08:47:20.150Z,16.30
2019-01-26T08:50:25.136Z,11.40
2019-01-26T08:53:28.778Z,15.53
2019-01-26T08:56:32.591Z,14.58
2019-01-26T08:59:36.229Z,15.20
2019-01-26T09:04:46.959Z,15.55
2019-01-26T09:07:50.788Z,15.17
2019-01-26T09:10:54.761Z,12.78
2019-01-26T09:13:58.406Z,13.75
2019-01-26T09:17:02.214Z,12.78
2019-01-26T09:20:07.882Z,16.35
2019-01-26T09:23:11.649Z,11.95
2019-01-26T09:26:17.125Z,11.97
2019-01-26T09:29:20.783Z,14.35
2019-01-26T09:32:24.406Z,13.87
2019-01-26T09:35:28.026Z,13.40
2019-01-26T09:38:31.681Z,11.63
2019-01-26T09:41:35.309Z,12.33
2019-01-26T09:44:38.955Z,10.55
2019-01-26T09:47:42.572Z,12.88
2019-01-26T09:50:46.355Z,13.30
2019-01-26T09:53:49.887Z,12.03
2019-01-26T09:56:53.489Z,12.53
2019-01-26T09:59:57.087Z,12.67
2019-01-26T10:03:00.673Z,12.93
2019-01-26T10:06:04.323Z,12.83
2019-01-26T10:09:10.922Z,14.20
2019-01-26T10:12:14.522Z,14.93
2019-01-26T10:15:18.496Z,12.47
2019-01-26T10:18:22.152Z,11.40
2019-01-26T10:21:25.871Z,14.47
2019-01-26T10:24:29.523Z,15.48
2019-01-26T10:27:33.290Z,14.20
2019-01-26T10:30:41.505Z,15.20
2019-01-26T10:33:45.235Z,16.03
2019-01-26T10:36:53.269Z,15.15
2019-01-26T10:39:56.868Z,15.10
2019-01-26T10:43:01.329Z,14.77
2019-01-26T10:46:05.111Z,16.15
2019-01-26T10:49:08.723Z,12.70
2019-01-26T10:52:12.997Z,17.23
2019-01-26T10:55:19.243Z,15.10
2019-01-26T10:58:24.750Z,14.83
2019-01-26T11:01:28.657Z,13.20
2019-01-26T11:04:32.785Z,14.60
2019-01-26T11:07:36.681Z,13.03
2019-01-26T11:10:40.662Z,14.58
2019-01-26T11:13:45.580Z,13.67
2019-01-26T11:16:49.224Z,12.55
2019-01-26T11:19:52.781Z,12.33
2019-01-26T11:23:03.763Z,12.13
2019-01-26T11:26:08.718Z,13.83
2019-01-26T11:29:13.341Z,11.27
2019-01-26T11:35:49.027Z,13.53
2019-01-26T11:38:52.721Z,12.97
2019-01-26T11:41:56.944Z,14.80
2019-01-26T11:47:10.092Z,14.00
2019-01-26T11:50:18.314Z,14.17
2019-01-26T11:53:22.644Z,13.57
2019-01-26T11:56:31.916Z,15.27
2019-01-26T11:59:36.128Z,16.03
2019-01-26T12:02:48.379Z,19.67
2019-01-26T12:05:58.453Z,15.63
2019-01-26T12:09:05.137Z,13.00
2019-01-26T12:15:41.359Z,14.07
2019-01-26T12:18:45.836Z,15.17
2019-01-26T12:25:21.083Z,12.23
2019-01-26T12:28:24.739Z,13.23
2019-01-26T12:31:28.561Z,10.00
2019-01-26T12:34:32.539Z,10.97
2019-01-26T12:37:36.193Z,9.90
2019-01-26T12:40:40.988Z,14.07
2019-01-26T12:43:44.599Z,10.03
2019-01-26T12:46:48.388Z,9.63
2019-01-26T12:49:52.042Z,11.00
2019-01-26T12:52:55.683Z,10.73
2019-01-26T12:55:59.310Z,10.90
2019-01-26T12:59:04.070Z,11.93
2019-01-26T13:02:07.914Z,13.73
2019-01-26T13:05:11.602Z,11.63
2019-01-26T13:08:15.374Z,13.47
2019-01-26T13:11:22.943Z,10.50
2019-01-26T13:14:26.611Z,12.87
2019-01-26T13:17:30.290Z,13.47
2019-01-26T13:20:34.024Z,14.67
2019-01-26T13:23:37.570Z,14.10
2019-01-26T13:26:47.881Z,11.30
2019-01-26T13:29:51.514Z,14.57
2019-01-26T13:32:55.265Z,14.40
2019-01-26T13:35:58.945Z,15.33
2019-01-26T13:39:02.592Z,17.37
2019-01-26T13:42:06.499Z,17.43
2019-01-26T13:45:13.091Z,13.40
2019-01-26T13:48:16.675Z,14.00
2019-01-26T13:51:22.411Z,17.10
2019-01-26T13:54:26.252Z,16.67
2019-01-26T13:57:30.474Z,14.97
2019-01-26T14:00:34.157Z,13.90
2019-01-26T14:03:38.156Z,17.30
2019-01-26T14:06:42.215Z,12.70
2019-01-26T14:12:56.239Z,12.53
2019-01-26T14:15:59.947Z,13.40
2019-01-26T14:19:03.609Z,12.90
2019-01-26T14:22:07.221Z,13.43
2019-01-26T14:25:11.101Z,13.97
2019-01-26T14:28:14.962Z,12.93
2019-01-26T14:31:18.625Z,13.10
2019-01-26T14:34:22.201Z,11.87
2019-01-26T14:37:25.819Z,13.60
2019-01-26T14:40:29.553Z,11.87
2019-01-26T14:43:33.206Z,14.50
2019-01-26T14:46:36.870Z,11.60
2019-01-26T14:49:40.548Z,11.87
2019-01-26T14:52:44.257Z,11.87
2019-01-26T14:55:48.027Z,12.33
2019-01-26T14:58:51.684Z,11.80
2019-01-26T15:01:55.364Z,12.77
2019-01-26T15:04:58.992Z,15.20
2019-01-26T15:08:02.688Z,15.43
2019-01-26T15:11:06.961Z,12.03
2019-01-26T15:14:10.642Z,11.73
2019-01-26T15:17:14.320Z,12.17
2019-01-26T15:20:25.842Z,11.67
2019-01-26T15:23:30.331Z,13.50
2019-01-26T15:26:34.099Z,13.57
2019-01-26T15:29:37.693Z,10.93
2019-01-26T15:32:41.297Z,11.10
2019-01-26T15:35:45.017Z,13.90
2019-01-26T15:38:49.068Z,11.97
2019-01-26T15:41:52.759Z,11.30
2019-01-26T15:44:56.324Z,11.80
2019-01-26T15:48:00.041Z,11.13
2019-01-26T15:51:03.699Z,12.97
2019-01-26T15:54:07.405Z,12.37
2019-01-26T15:57:12.840Z,12.83
2019-01-26T16:00:19.037Z,12.43
2019-01-26T16:03:22.802Z,12.70
2019-01-26T16:06:26.886Z,14.23
2019-01-26T16:09:31.139Z,11.37
2019-01-26T16:12:34.719Z,11.90
2019-01-26T16:15:39.428Z,12.10
2019-01-26T16:18:43.469Z,12.40
2019-01-26T16:21:47.399Z,11.47
2019-01-26T16:24:51.028Z,13.33
2019-01-26T16:27:54.729Z,12.70
2019-01-26T16:30:58.492Z,13.57
2019-01-26T16:34:02.547Z,11.63
2019-01-26T16:37:06.241Z,12.53
2019-01-26T16:40:13.125Z,12.50
2019-01-26T16:43:17.353Z,12.53
2019-01-26T16:46:23.609Z,15.60
2019-01-26T16:49:28.359Z,13.90
2019-01-26T16:52:32.274Z,11.20
2019-01-26T16:55:37.357Z,11.17
2019-01-26T16:58:41.942Z,12.07
2019-01-26T17:01:46.623Z,14.57
2019-01-26T17:04:51.145Z,12.37
2019-01-26T17:07:56.270Z,11.13
2019-01-26T17:11:02.170Z,11.23
2019-01-26T17:14:07.609Z,11.00
2019-01-26T17:17:11.185Z,10.47
2019-01-26T17:20:18.205Z,11.60
2019-01-26T17:23:22.104Z,10.67
2019-01-26T17:26:25.813Z,10.70
2019-01-26T17:29:29.396Z,13.40
2019-01-26T17:32:33.034Z,11.57
2019-01-26T17:35:37.294Z,12.57
2019-01-26T17:38:40.973Z,10.27
2019-01-26T17:41:45.820Z,12.53
2019-01-26T17:44:49.521Z,12.97
2019-01-26T17:47:53.646Z,13.17
2019-01-26T17:50:58.288Z,10.50
2019-01-26T17:54:01.977Z,9.73
2019-01-26T17:57:06.508Z,10.70
2019-01-26T18:00:13.544Z,12.80
2019-01-26T18:03:17.291Z,14.93
2019-01-26T18:06:21.084Z,11.13
2019-01-26T18:09:24.793Z,12.73
2019-01-26T18:12:28.647Z,11.83
2019-01-26T18:15:32.322Z,11.33
2019-01-26T18:18:36.181Z,12.00
2019-01-26T18:21:40.985Z,13.37
2019-01-26T18:24:44.290Z,11.23
2019-01-26T18:27:48.491Z,11.60
2019-01-26T18:30:52.307Z,13.73
2019-01-26T18:33:56.103Z,11.43
2019-01-26T18:37:00.985Z,12.30
2019-01-26T18:40:06.007Z,10.50
2019-01-26T18:43:09.829Z,10.53
2019-01-26T18:46:13.593Z,12.40
2019-01-26T18:49:17.356Z,9.80
2019-01-26T18:52:21.116Z,9.13
2019-01-26T18:55:24.860Z,11.47
2019-01-26T18:58:28.989Z,18.80
2019-01-26T19:01:33.122Z,12.13
2019-01-26T19:04:42.649Z,10.73
2019-01-26T19:07:46.914Z,11.27
2019-01-26T19:10:50.561Z,12.07
2019-01-26T19:13:54.542Z,11.43
2019-01-26T19:16:58.652Z,10.27
2019-01-26T19:20:02.357Z,22.73
2019-01-26T19:23:07.639Z,11.70
2019-01-26T19:26:11.436Z,12.13
2019-01-26T19:29:17.850Z,10.00
2019-01-26T19:32:22.153Z,11.50
2019-01-26T19:35:25.980Z,10.27
2019-01-26T19:38:29.621Z,9.47
2019-01-26T19:41:33.767Z,10.13
2019-01-26T19:44:37.750Z,11.93
2019-01-26T19:47:41.541Z,8.83
2019-01-26T19:50:45.249Z,8.87
2019-01-26T19:53:48.988Z,13.53
2019-01-26T19:56:52.943Z,9.73
2019-01-26T19:59:57.137Z,10.47
2019-01-26T20:03:00.758Z,9.43
2019-01-26T20:06:04.431Z,8.63
2019-01-26T20:09:09.585Z,10.77
2019-01-26T20:12:13.428Z,8.77
2019-01-26T20:15:19.503Z,12.67
2019-01-26T20:18:23.477Z,9.87
2019-01-26T20:21:29.225Z,9.20
2019-01-26T20:24:32.956Z,12.53
2019-01-26T20:27:36.607Z,9.60
2019-01-26T20:30:40.476Z,10.97
2019-01-26T20:33:44.005Z,9.93
2019-01-26T20:36:47.674Z,9.30
2019-01-26T20:39:51.286Z,12.40
2019-01-26T20:42:55.034Z,8.37
2019-01-26T20:45:58.912Z,9.20
2019-01-26T20:49:02.534Z,13.00
2019-01-26T20:52:06.268Z,9.40
2019-01-26T20:55:10.478Z,9.23
2019-01-26T20:58:14.204Z,8.03
2019-01-26T21:01:17.858Z,10.33
2019-01-26T21:04:21.486Z,8.87
2019-01-26T21:07:25.213Z,8.30
2019-01-26T21:10:30.055Z,9.00
2019-01-26T21:13:33.826Z,8.83
2019-01-26T21:16:37.618Z,7.50
2019-01-26T21:19:42.290Z,8.63
2019-01-26T21:22:46.091Z,9.57
2019-01-26T21:25:49.996Z,12.73
2019-01-26T21:28:53.691Z,12.87
2019-01-26T21:31:58.012Z,12.90
2019-01-26T21:35:02.773Z,14.53
2019-01-26T21:38:06.456Z,15.27
2019-01-26T21:41:10.199Z,12.53
2019-01-26T21:44:13.769Z,14.43
2019-01-26T21:47:17.327Z,12.03
2019-01-26T21:50:25.586Z,9.10
2019-01-26T21:53:29.316Z,9.60
2019-01-26T21:56:33.456Z,9.53
2019-01-26T21:59:37.333Z,7.77
2019-01-26T22:02:40.985Z,9.03
2019-01-26T22:05:44.919Z,9.40
2019-01-26T22:08:49.294Z,6.37
2019-01-26T22:11:52.951Z,6.83
2019-01-26T22:14:56.581Z,5.80
2019-01-26T22:18:00.181Z,7.00
2019-01-26T22:21:03.996Z,5.87
2019-01-26T22:24:07.694Z,5.00
2019-01-26T22:27:11.714Z,4.90
2019-01-26T22:30:19.984Z,5.37
2019-01-26T22:33:24.122Z,6.42
2019-01-26T22:36:28.091Z,4.63
2019-01-26T22:39:31.962Z,4.70
2019-01-26T22:42:35.674Z,8.80
2019-01-26T22:45:39.681Z,5.33
2019-01-26T22:48:43.288Z,6.77
2019-01-26T22:51:53.225Z,5.20
2019-01-26T22:54:51.484Z,8.90
2019-01-26T22:57:55.335Z,4.73
2019-01-26T23:01:10.637Z,4.77
2019-01-26T23:05:26.158Z,5.67
2019-01-26T23:08:30.953Z,5.43
2019-01-26T23:12:21.773Z,4.77
2019-01-26T23:16:51.978Z,5.17
2019-01-26T23:20:01.836Z,5.50
2019-01-26T23:23:24.181Z,4.60
2019-01-26T23:31:06.607Z,3.83
2019-01-26T23:34:10.285Z,3.13
2019-01-26T23:37:14.077Z,4.60
2019-01-26T23:40:17.897Z,4.10
2019-01-26T23:43:21.575Z,4.30
2019-01-26T23:46:25.211Z,4.50
2019-01-26T23:49:28.876Z,4.00
2019-01-26T23:52:32.539Z,6.07
2019-01-26T23:55:36.153Z,4.50
2019-01-26T23:58:39.792Z,4.53
